sensor_id;sensor_type;location;lat;lon;timestamp;pressure;altitude;pressure_sealevel;temperature;humidity
73566;BME280;61846;52.970;-3.168;2023-09-19T00:02:23;99415.31;;;13.40;50.47
73566;BME280;61846;52.970;-3.168;2023-09-19T00:04:48;99403.86;;;12.98;50.13
73566;BME280;61846;52.970;-3.168;2023-09-19T00:07:14;99400.75;;;13.09;50.17
73566;BME280;61846;52.970;-3.168;2023-09-19T00:09:39;99393.75;;;13.06;50.79
73566;BME280;61846;52.970;-3.168;2023-09-19T00:12:06;99391.27;;;13.49;49.50
73566;BME280;61846;52.970;-3.168;2023-09-19T00:14:31;99396.25;;;12.69;52.33
73566;BME280;61846;52.970;-3.168;2023-09-19T00:16:56;99400.66;;;13.13;50.95
73566;BME280;61846;52.970;-3.168;2023-09-19T00:19:22;99393.38;;;14.33;48.16
73566;BME280;61846;52.970;-3.168;2023-09-19T00:21:47;99395.57;;;13.96;49.00
73566;BME280;61846;52.970;-3.168;2023-09-19T00:24:12;99386.43;;;14.47;48.38
73566;BME280;61846;52.970;-3.168;2023-09-19T00:26:38;99380.15;;;13.65;48.94
73566;BME280;61846;52.970;-3.168;2023-09-19T00:29:03;99375.25;;;15.08;46.49
73566;BME280;61846;52.970;-3.168;2023-09-19T00:31:29;99380.64;;;14.30;47.22
73566;BME280;61846;52.970;-3.168;2023-09-19T00:33:54;99394.35;;;13.84;47.74
73566;BME280;61846;52.970;-3.168;2023-09-19T00:36:20;99395.88;;;14.00;47.90
73566;BME280;61846;52.970;-3.168;2023-09-19T00:38:45;99399.93;;;14.07;48.58
73566;BME280;61846;52.970;-3.168;2023-09-19T00:41:10;99397.17;;;13.68;49.28
73566;BME280;61846;52.970;-3.168;2023-09-19T00:43:36;99387.11;;;13.12;50.77
73566;BME280;61846;52.970;-3.168;2023-09-19T00:46:01;99385.35;;;14.00;48.99
73566;BME280;61846;52.970;-3.168;2023-09-19T00:48:27;99386.56;;;13.87;48.15
73566;BME280;61846;52.970;-3.168;2023-09-19T00:50:52;99384.94;;;13.67;49.13
73566;BME280;61846;52.970;-3.168;2023-09-19T00:53:20;99378.96;;;13.80;49.01
73566;BME280;61846;52.970;-3.168;2023-09-19T00:55:43;99375.73;;;13.23;49.75
73566;BME280;61846;52.970;-3.168;2023-09-19T00:58:09;99375.82;;;13.59;50.86
73566;BME280;61846;52.970;-3.168;2023-09-19T01:00:34;99370.81;;;13.49;50.15
73566;BME280;61846;52.970;-3.168;2023-09-19T01:02:59;99360.95;;;13.95;48.33
73566;BME280;61846;52.970;-3.168;2023-09-19T01:05:24;99351.99;;;13.93;48.22
73566;BME280;61846;52.970;-3.168;2023-09-19T01:07:49;99350.92;;;13.64;49.34
73566;BME280;61846;52.970;-3.168;2023-09-19T01:10:18;99347.08;;;13.14;50.45
73566;BME280;61846;52.970;-3.168;2023-09-19T01:12:48;99353.36;;;13.58;49.25
73566;BME280;61846;52.970;-3.168;2023-09-19T01:15:12;99361.92;;;13.87;48.22
73566;BME280;61846;52.970;-3.168;2023-09-19T01:17:34;99376.65;;;13.89;47.56
73566;BME280;61846;52.970;-3.168;2023-09-19T01:20:11;99388.78;;;12.61;50.38
73566;BME280;61846;52.970;-3.168;2023-09-19T01:22:28;99389.04;;;12.79;51.34
73566;BME280;61846;52.970;-3.168;2023-09-19T01:25:00;99388.35;;;13.37;49.64
73566;BME280;61846;52.970;-3.168;2023-09-19T01:27:27;99391.41;;;12.95;50.62
73566;BME280;61846;52.970;-3.168;2023-09-19T01:29:42;99379.88;;;13.07;50.27
73566;BME280;61846;52.970;-3.168;2023-09-19T01:32:05;99381.78;;;13.35;49.15
73566;BME280;61846;52.970;-3.168;2023-09-19T01:34:43;99380.55;;;13.90;47.80
73566;BME280;61846;52.970;-3.168;2023-09-19T01:36:55;99380.51;;;14.24;47.48
73566;BME280;61846;52.970;-3.168;2023-09-19T01:39:20;99383.64;;;13.88;46.86
73566;BME280;61846;52.970;-3.168;2023-09-19T01:41:55;99381.91;;;14.12;46.86
73566;BME280;61846;52.970;-3.168;2023-09-19T01:44:17;99386.46;;;13.83;47.44
73566;BME280;61846;52.970;-3.168;2023-09-19T01:46:39;99389.64;;;13.99;47.39
73566;BME280;61846;52.970;-3.168;2023-09-19T01:49:10;99394.97;;;14.29;46.92
73566;BME280;61846;52.970;-3.168;2023-09-19T01:51:33;99400.81;;;13.37;48.17
73566;BME280;61846;52.970;-3.168;2023-09-19T01:53:58;99405.60;;;13.96;47.66
73566;BME280;61846;52.970;-3.168;2023-09-19T01:56:25;99403.21;;;12.60;49.93
73566;BME280;61846;52.970;-3.168;2023-09-19T01:58:47;99393.26;;;13.35;50.41
73566;BME280;61846;52.970;-3.168;2023-09-19T02:01:11;99392.73;;;13.10;51.66
73566;BME280;61846;52.970;-3.168;2023-09-19T02:03:35;99382.24;;;12.96;51.46
73566;BME280;61846;52.970;-3.168;2023-09-19T02:06:00;99383.03;;;13.32;50.48
73566;BME280;61846;52.970;-3.168;2023-09-19T02:08:26;99382.65;;;13.57;49.53
73566;BME280;61846;52.970;-3.168;2023-09-19T02:10:51;99381.73;;;12.70;52.19
73566;BME280;61846;52.970;-3.168;2023-09-19T02:13:16;99376.46;;;12.69;52.18
73566;BME280;61846;52.970;-3.168;2023-09-19T02:15:41;99370.64;;;13.70;49.39
73566;BME280;61846;52.970;-3.168;2023-09-19T02:18:06;99362.83;;;13.51;48.85
73566;BME280;61846;52.970;-3.168;2023-09-19T02:20:32;99363.29;;;13.51;49.73
73566;BME280;61846;52.970;-3.168;2023-09-19T02:22:57;99358.22;;;14.30;49.46
73566;BME280;61846;52.970;-3.168;2023-09-19T02:25:23;99354.11;;;14.13;48.68
73566;BME280;61846;52.970;-3.168;2023-09-19T02:27:48;99350.57;;;13.88;48.03
73566;BME280;61846;52.970;-3.168;2023-09-19T02:30:14;99339.29;;;15.01;47.28
73566;BME280;61846;52.970;-3.168;2023-09-19T02:32:39;99341.85;;;14.83;47.01
73566;BME280;61846;52.970;-3.168;2023-09-19T02:35:06;99335.07;;;15.66;45.54
73566;BME280;61846;52.970;-3.168;2023-09-19T02:37:29;99332.86;;;15.73;45.00
73566;BME280;61846;52.970;-3.168;2023-09-19T02:39:55;99337.20;;;15.84;45.65
73566;BME280;61846;52.970;-3.168;2023-09-19T02:42:20;99345.21;;;15.59;44.88
73566;BME280;61846;52.970;-3.168;2023-09-19T02:44:46;99342.35;;;15.47;46.42
73566;BME280;61846;52.970;-3.168;2023-09-19T02:47:11;99341.18;;;15.79;47.10
73566;BME280;61846;52.970;-3.168;2023-09-19T02:49:37;99332.57;;;15.53;46.60
73566;BME280;61846;52.970;-3.168;2023-09-19T02:52:02;99321.49;;;15.89;47.00
73566;BME280;61846;52.970;-3.168;2023-09-19T02:54:27;99310.70;;;15.78;46.82
73566;BME280;61846;52.970;-3.168;2023-09-19T02:56:53;99306.35;;;15.81;47.27
73566;BME280;61846;52.970;-3.168;2023-09-19T02:59:18;99295.76;;;15.75;47.34
73566;BME280;61846;52.970;-3.168;2023-09-19T03:01:43;99278.90;;;16.04;46.18
73566;BME280;61846;52.970;-3.168;2023-09-19T03:04:09;99272.17;;;16.62;46.19
73566;BME280;61846;52.970;-3.168;2023-09-19T03:06:34;99269.19;;;16.44;46.76
73566;BME280;61846;52.970;-3.168;2023-09-19T03:09:00;99268.17;;;16.90;46.70
73566;BME280;61846;52.970;-3.168;2023-09-19T03:11:25;99261.49;;;16.38;47.97
73566;BME280;61846;52.970;-3.168;2023-09-19T03:13:52;99264.31;;;15.80;48.47
73566;BME280;61846;52.970;-3.168;2023-09-19T03:16:16;99268.83;;;16.80;46.95
73566;BME280;61846;52.970;-3.168;2023-09-19T03:18:41;99257.38;;;16.98;45.07
73566;BME280;61846;52.970;-3.168;2023-09-19T03:21:07;99255.50;;;16.19;46.51
73566;BME280;61846;52.970;-3.168;2023-09-19T03:23:32;99247.21;;;16.02;47.34
73566;BME280;61846;52.970;-3.168;2023-09-19T03:25:57;99243.33;;;15.70;48.23
73566;BME280;61846;52.970;-3.168;2023-09-19T03:28:23;99246.55;;;15.56;48.60
73566;BME280;61846;52.970;-3.168;2023-09-19T03:30:59;99236.63;;;15.80;48.29
73566;BME280;61846;52.970;-3.168;2023-09-19T03:33:14;99225.61;;;15.46;48.75
73566;BME280;61846;52.970;-3.168;2023-09-19T03:35:39;99216.01;;;15.97;47.98
73566;BME280;61846;52.970;-3.168;2023-09-19T03:38:05;99206.27;;;14.95;49.72
73566;BME280;61846;52.970;-3.168;2023-09-19T03:40:30;99201.26;;;15.44;48.14
73566;BME280;61846;52.970;-3.168;2023-09-19T03:42:56;99196.45;;;16.11;47.18
73566;BME280;61846;52.970;-3.168;2023-09-19T03:45:21;99181.70;;;15.87;46.67
73566;BME280;61846;52.970;-3.168;2023-09-19T03:47:47;99174.49;;;16.76;46.86
73566;BME280;61846;52.970;-3.168;2023-09-19T03:50:13;99169.25;;;15.49;49.44
73566;BME280;61846;52.970;-3.168;2023-09-19T03:52:38;99165.82;;;15.63;49.25
73566;BME280;61846;52.970;-3.168;2023-09-19T03:55:04;99166.60;;;15.35;50.43
73566;BME280;61846;52.970;-3.168;2023-09-19T03:57:29;99158.32;;;15.42;50.83
73566;BME280;61846;52.970;-3.168;2023-09-19T03:59:54;99156.88;;;15.55;49.98
73566;BME280;61846;52.970;-3.168;2023-09-19T04:02:20;99147.46;;;15.51;50.43
73566;BME280;61846;52.970;-3.168;2023-09-19T04:04:45;99138.40;;;16.03;49.04
73566;BME280;61846;52.970;-3.168;2023-09-19T04:07:11;99125.32;;;15.37;50.85
73566;BME280;61846;52.970;-3.168;2023-09-19T04:09:36;99115.92;;;15.38;51.72
73566;BME280;61846;52.970;-3.168;2023-09-19T04:12:02;99105.32;;;16.46;49.95
73566;BME280;61846;52.970;-3.168;2023-09-19T04:14:27;99097.39;;;15.93;49.71
73566;BME280;61846;52.970;-3.168;2023-09-19T04:16:52;99087.35;;;16.37;48.52
73566;BME280;61846;52.970;-3.168;2023-09-19T04:19:18;99084.25;;;16.33;48.79
73566;BME280;61846;52.970;-3.168;2023-09-19T04:21:43;99079.49;;;15.54;50.29
73566;BME280;61846;52.970;-3.168;2023-09-19T04:24:09;99077.32;;;15.53;50.80
73566;BME280;61846;52.970;-3.168;2023-09-19T04:26:34;99064.24;;;15.28;52.73
73566;BME280;61846;52.970;-3.168;2023-09-19T04:28:59;99051.96;;;16.19;50.65
73566;BME280;61846;52.970;-3.168;2023-09-19T04:31:25;99044.14;;;15.64;51.48
73566;BME280;61846;52.970;-3.168;2023-09-19T04:33:50;99034.55;;;16.02;50.75
73566;BME280;61846;52.970;-3.168;2023-09-19T04:36:15;99014.15;;;16.12;50.93
73566;BME280;61846;52.970;-3.168;2023-09-19T04:38:41;99008.08;;;15.95;50.97
73566;BME280;61846;52.970;-3.168;2023-09-19T04:41:06;98996.89;;;15.42;52.22
73566;BME280;61846;52.970;-3.168;2023-09-19T04:43:31;98987.55;;;15.41;52.53
73566;BME280;61846;52.970;-3.168;2023-09-19T04:45:57;98983.19;;;15.56;52.34
73566;BME280;61846;52.970;-3.168;2023-09-19T04:48:22;98977.53;;;15.91;51.75
73566;BME280;61846;52.970;-3.168;2023-09-19T04:50:48;98969.63;;;14.88;54.04
73566;BME280;61846;52.970;-3.168;2023-09-19T04:53:13;98954.74;;;15.76;53.31
73566;BME280;61846;52.970;-3.168;2023-09-19T04:55:39;98948.28;;;15.00;54.02
73566;BME280;61846;52.970;-3.168;2023-09-19T04:58:04;98940.26;;;15.82;52.65
73566;BME280;61846;52.970;-3.168;2023-09-19T05:00:30;98932.25;;;15.56;53.20
73566;BME280;61846;52.970;-3.168;2023-09-19T05:02:56;98929.29;;;14.35;56.51
73566;BME280;61846;52.970;-3.168;2023-09-19T05:05:20;98921.62;;;14.62;55.98
73566;BME280;61846;52.970;-3.168;2023-09-19T05:07:46;98908.48;;;14.98;55.85
73566;BME280;61846;52.970;-3.168;2023-09-19T05:10:12;98905.25;;;14.41;57.04
73566;BME280;61846;52.970;-3.168;2023-09-19T05:12:37;98907.25;;;14.97;56.39
73566;BME280;61846;52.970;-3.168;2023-09-19T05:15:02;98897.85;;;14.58;57.16
73566;BME280;61846;52.970;-3.168;2023-09-19T05:17:28;98878.23;;;15.09;56.44
73566;BME280;61846;52.970;-3.168;2023-09-19T05:19:53;98880.25;;;14.00;59.81
73566;BME280;61846;52.970;-3.168;2023-09-19T05:22:19;98872.56;;;13.80;61.33
73566;BME280;61846;52.970;-3.168;2023-09-19T05:24:44;98878.69;;;13.73;61.37
73566;BME280;61846;52.970;-3.168;2023-09-19T05:27:09;98879.74;;;14.32;61.06
73566;BME280;61846;52.970;-3.168;2023-09-19T05:29:35;98877.96;;;14.79;59.05
73566;BME280;61846;52.970;-3.168;2023-09-19T05:32:00;98868.91;;;13.54;63.19
73566;BME280;61846;52.970;-3.168;2023-09-19T05:34:26;98853.49;;;14.79;61.20
73566;BME280;61846;52.970;-3.168;2023-09-19T05:36:51;98852.30;;;13.75;62.70
73566;BME280;61846;52.970;-3.168;2023-09-19T05:39:17;98845.09;;;14.68;60.88
73566;BME280;61846;52.970;-3.168;2023-09-19T05:41:42;98849.72;;;14.14;62.43
73566;BME280;61846;52.970;-3.168;2023-09-19T05:44:08;98844.11;;;15.11;59.93
73566;BME280;61846;52.970;-3.168;2023-09-19T05:46:33;98842.45;;;14.61;60.83
73566;BME280;61846;52.970;-3.168;2023-09-19T05:48:58;98849.94;;;14.80;60.82
73566;BME280;61846;52.970;-3.168;2023-09-19T05:51:24;98846.57;;;15.06;59.66
73566;BME280;61846;52.970;-3.168;2023-09-19T05:53:49;98833.84;;;14.14;62.96
73566;BME280;61846;52.970;-3.168;2023-09-19T05:56:15;98823.17;;;14.68;61.79
73566;BME280;61846;52.970;-3.168;2023-09-19T05:58:40;98816.24;;;15.26;60.17
73566;BME280;61846;52.970;-3.168;2023-09-19T06:01:06;98808.54;;;15.15;59.77
73566;BME280;61846;52.970;-3.168;2023-09-19T06:03:31;98804.37;;;15.58;59.25
73566;BME280;61846;52.970;-3.168;2023-09-19T06:05:56;98799.23;;;16.09;57.87
73566;BME280;61846;52.970;-3.168;2023-09-19T06:08:22;98798.64;;;15.75;58.23
73566;BME280;61846;52.970;-3.168;2023-09-19T06:10:47;98776.42;;;16.25;57.18
73566;BME280;61846;52.970;-3.168;2023-09-19T06:13:13;98780.22;;;16.54;56.73
73566;BME280;61846;52.970;-3.168;2023-09-19T06:15:38;98778.04;;;16.46;56.13
73566;BME280;61846;52.970;-3.168;2023-09-19T06:18:04;98775.99;;;16.95;55.77
73566;BME280;61846;52.970;-3.168;2023-09-19T06:20:29;98779.57;;;13.94;62.63
73566;BME280;61846;52.970;-3.168;2023-09-19T06:22:54;98779.63;;;13.33;65.43
73566;BME280;61846;52.970;-3.168;2023-09-19T06:25:20;98770.76;;;16.07;59.25
73566;BME280;61846;52.970;-3.168;2023-09-19T06:27:46;98766.17;;;16.38;58.90
73566;BME280;61846;52.970;-3.168;2023-09-19T06:30:11;98769.73;;;16.75;57.63
73566;BME280;61846;52.970;-3.168;2023-09-19T06:32:36;98762.94;;;15.84;59.19
73566;BME280;61846;52.970;-3.168;2023-09-19T06:35:01;98767.16;;;16.25;58.54
73566;BME280;61846;52.970;-3.168;2023-09-19T06:37:27;98764.20;;;16.69;58.18
73566;BME280;61846;52.970;-3.168;2023-09-19T06:39:52;98758.50;;;15.91;59.87
73566;BME280;61846;52.970;-3.168;2023-09-19T06:42:18;98765.78;;;13.90;65.78
73566;BME280;61846;52.970;-3.168;2023-09-19T06:44:43;98750.46;;;15.55;62.63
73566;BME280;61846;52.970;-3.168;2023-09-19T06:47:09;98754.39;;;15.12;63.57
73566;BME280;61846;52.970;-3.168;2023-09-19T06:49:34;98739.52;;;15.94;60.65
73566;BME280;61846;52.970;-3.168;2023-09-19T06:51:59;98757.94;;;13.48;67.64
73566;BME280;61846;52.970;-3.168;2023-09-19T06:54:25;98750.01;;;12.82;70.24
73566;BME280;61846;52.970;-3.168;2023-09-19T06:56:50;98739.25;;;13.95;67.00
73566;BME280;61846;52.970;-3.168;2023-09-19T06:59:16;98734.86;;;14.96;64.73
73566;BME280;61846;52.970;-3.168;2023-09-19T07:01:41;98730.03;;;15.08;63.75
73566;BME280;61846;52.970;-3.168;2023-09-19T07:04:06;98739.69;;;15.71;62.47
73566;BME280;61846;52.970;-3.168;2023-09-19T07:06:32;98730.42;;;14.96;65.11
73566;BME280;61846;52.970;-3.168;2023-09-19T07:08:57;98728.76;;;13.80;67.04
73566;BME280;61846;52.970;-3.168;2023-09-19T07:11:23;98724.41;;;14.81;64.69
73566;BME280;61846;52.970;-3.168;2023-09-19T07:13:48;98721.43;;;16.06;61.64
73566;BME280;61846;52.970;-3.168;2023-09-19T07:16:14;98704.39;;;16.68;59.59
73566;BME280;61846;52.970;-3.168;2023-09-19T07:18:39;98706.89;;;17.10;58.92
73566;BME280;61846;52.970;-3.168;2023-09-19T07:21:04;98725.53;;;16.52;59.94
73566;BME280;61846;52.970;-3.168;2023-09-19T07:23:30;98718.54;;;16.76;59.25
73566;BME280;61846;52.970;-3.168;2023-09-19T07:25:57;98715.75;;;17.17;57.37
73566;BME280;61846;52.970;-3.168;2023-09-19T07:28:20;98702.36;;;17.35;56.70
73566;BME280;61846;52.970;-3.168;2023-09-19T07:30:46;98705.74;;;17.95;56.07
73566;BME280;61846;52.970;-3.168;2023-09-19T07:33:11;98690.42;;;18.49;54.78
73566;BME280;61846;52.970;-3.168;2023-09-19T07:35:37;98673.33;;;17.92;56.06
73566;BME280;61846;52.970;-3.168;2023-09-19T07:38:02;98665.19;;;17.33;57.19
73566;BME280;61846;52.970;-3.168;2023-09-19T07:40:28;98662.87;;;17.50;58.32
73566;BME280;61846;52.970;-3.168;2023-09-19T07:42:53;98668.12;;;17.22;58.55
73566;BME280;61846;52.970;-3.168;2023-09-19T07:45:18;98666.39;;;16.64;59.83
73566;BME280;61846;52.970;-3.168;2023-09-19T07:47:44;98659.92;;;17.37;59.30
73566;BME280;61846;52.970;-3.168;2023-09-19T07:50:09;98638.56;;;16.33;60.65
73566;BME280;61846;52.970;-3.168;2023-09-19T07:52:34;98651.86;;;17.09;58.85
73566;BME280;61846;52.970;-3.168;2023-09-19T07:55:00;98665.46;;;17.24;60.20
73566;BME280;61846;52.970;-3.168;2023-09-19T07:57:25;98679.47;;;16.59;61.65
73566;BME280;61846;52.970;-3.168;2023-09-19T07:59:51;98690.37;;;15.72;64.99
73566;BME280;61846;52.970;-3.168;2023-09-19T08:02:16;98685.76;;;16.61;62.29
73566;BME280;61846;52.970;-3.168;2023-09-19T08:04:41;98688.79;;;17.13;61.74
73566;BME280;61846;52.970;-3.168;2023-09-19T08:07:06;98696.72;;;17.00;61.38
73566;BME280;61846;52.970;-3.168;2023-09-19T08:09:32;98694.24;;;16.81;60.59
73566;BME280;61846;52.970;-3.168;2023-09-19T08:11:57;98688.51;;;17.45;60.67
73566;BME280;61846;52.970;-3.168;2023-09-19T08:14:22;98682.39;;;16.04;64.45
73566;BME280;61846;52.970;-3.168;2023-09-19T08:16:48;98680.73;;;17.26;61.60
73566;BME280;61846;52.970;-3.168;2023-09-19T08:19:13;98673.91;;;16.58;63.30
73566;BME280;61846;52.970;-3.168;2023-09-19T08:21:39;98683.51;;;16.63;63.32
73566;BME280;61846;52.970;-3.168;2023-09-19T08:24:04;98678.89;;;17.03;62.35
73566;BME280;61846;52.970;-3.168;2023-09-19T08:26:29;98662.75;;;17.49;61.21
73566;BME280;61846;52.970;-3.168;2023-09-19T08:28:55;98674.69;;;17.06;62.23
73566;BME280;61846;52.970;-3.168;2023-09-19T08:31:20;98676.58;;;17.65;60.31
73566;BME280;61846;52.970;-3.168;2023-09-19T08:33:45;98689.41;;;17.77;61.72
73566;BME280;61846;52.970;-3.168;2023-09-19T08:36:11;98670.28;;;17.89;61.02
73566;BME280;61846;52.970;-3.168;2023-09-19T08:38:36;98692.45;;;18.37;59.28
73566;BME280;61846;52.970;-3.168;2023-09-19T08:41:07;98687.23;;;16.78;62.73
73566;BME280;61846;52.970;-3.168;2023-09-19T08:43:27;98693.76;;;17.61;61.33
73566;BME280;61846;52.970;-3.168;2023-09-19T08:45:58;98692.00;;;17.11;62.90
73566;BME280;61846;52.970;-3.168;2023-09-19T08:48:23;98711.82;;;17.44;61.61
73566;BME280;61846;52.970;-3.168;2023-09-19T08:50:47;98716.44;;;17.79;60.88
73566;BME280;61846;52.970;-3.168;2023-09-19T08:53:11;98699.48;;;17.48;61.81
73566;BME280;61846;52.970;-3.168;2023-09-19T08:55:34;98714.65;;;17.81;61.29
73566;BME280;61846;52.970;-3.168;2023-09-19T08:58:01;98715.67;;;17.51;62.33
73566;BME280;61846;52.970;-3.168;2023-09-19T09:00:24;98709.09;;;17.71;61.44
73566;BME280;61846;52.970;-3.168;2023-09-19T09:02:50;98715.20;;;18.25;60.28
73566;BME280;61846;52.970;-3.168;2023-09-19T09:05:15;98710.99;;;18.02;60.28
73566;BME280;61846;52.970;-3.168;2023-09-19T09:07:40;98715.77;;;17.97;61.27
73566;BME280;61846;52.970;-3.168;2023-09-19T09:10:07;98717.44;;;18.20;61.49
73566;BME280;61846;52.970;-3.168;2023-09-19T09:12:31;98720.20;;;18.68;61.77
73566;BME280;61846;52.970;-3.168;2023-09-19T09:14:57;98721.64;;;18.45;61.61
73566;BME280;61846;52.970;-3.168;2023-09-19T09:17:21;98714.87;;;18.59;61.53
73566;BME280;61846;52.970;-3.168;2023-09-19T09:19:47;98730.63;;;18.71;61.15
73566;BME280;61846;52.970;-3.168;2023-09-19T09:22:12;98740.86;;;18.77;61.95
73566;BME280;61846;52.970;-3.168;2023-09-19T09:24:51;98722.15;;;19.27;59.22
73566;BME280;61846;52.970;-3.168;2023-09-19T09:27:04;98729.23;;;19.45;58.99
73566;BME280;61846;52.970;-3.168;2023-09-19T09:29:41;98730.42;;;18.96;59.27
73566;BME280;61846;52.970;-3.168;2023-09-19T09:31:53;98760.85;;;18.52;58.86
73566;BME280;61846;52.970;-3.168;2023-09-19T09:34:18;98733.64;;;19.04;58.91
73566;BME280;61846;52.970;-3.168;2023-09-19T09:36:48;98754.72;;;18.44;59.82
73566;BME280;61846;52.970;-3.168;2023-09-19T09:39:09;98736.17;;;18.69;58.44
73566;BME280;61846;52.970;-3.168;2023-09-19T09:41:36;98756.04;;;19.15;58.51
73566;BME280;61846;52.970;-3.168;2023-09-19T09:46:25;98754.71;;;19.84;56.83
73566;BME280;61846;52.970;-3.168;2023-09-19T09:48:56;98759.08;;;18.54;59.27
73566;BME280;61846;52.970;-3.168;2023-09-19T09:53:41;98760.22;;;18.11;60.04
73566;BME280;61846;52.970;-3.168;2023-09-19T09:56:07;98759.67;;;18.25;60.33
73566;BME280;61846;52.970;-3.168;2023-09-19T09:58:32;98763.54;;;17.84;61.48
73566;BME280;61846;52.970;-3.168;2023-09-19T10:00:57;98757.08;;;17.73;61.55
73566;BME280;61846;52.970;-3.168;2023-09-19T10:03:31;98741.62;;;18.07;62.13
73566;BME280;61846;52.970;-3.168;2023-09-19T10:05:53;98752.79;;;17.88;63.48
73566;BME280;61846;52.970;-3.168;2023-09-19T10:08:13;98757.14;;;18.28;60.62
73566;BME280;61846;52.970;-3.168;2023-09-19T10:10:39;98743.77;;;18.44;60.95
73566;BME280;61846;52.970;-3.168;2023-09-19T10:13:05;98752.38;;;18.94;58.34
73566;BME280;61846;52.970;-3.168;2023-09-19T10:15:32;98743.71;;;19.58;57.57
73566;BME280;61846;52.970;-3.168;2023-09-19T10:17:54;98762.89;;;19.11;58.86
73566;BME280;61846;52.970;-3.168;2023-09-19T10:20:19;98769.00;;;18.32;60.65
73566;BME280;61846;52.970;-3.168;2023-09-19T10:22:46;98765.19;;;18.23;61.41
73566;BME280;61846;52.970;-3.168;2023-09-19T10:25:10;98758.30;;;18.77;58.96
73566;BME280;61846;52.970;-3.168;2023-09-19T10:27:35;98758.12;;;19.36;60.57
73566;BME280;61846;52.970;-3.168;2023-09-19T10:30:01;98758.61;;;18.84;60.86
73566;BME280;61846;52.970;-3.168;2023-09-19T10:32:27;98762.92;;;18.22;62.02
73566;BME280;61846;52.970;-3.168;2023-09-19T10:34:51;98767.16;;;18.89;60.97
73566;BME280;61846;52.970;-3.168;2023-09-19T10:37:17;98766.90;;;19.22;58.69
73566;BME280;61846;52.970;-3.168;2023-09-19T10:39:45;98770.13;;;18.99;60.05
73566;BME280;61846;52.970;-3.168;2023-09-19T10:42:12;98775.31;;;18.88;60.03
73566;BME280;61846;52.970;-3.168;2023-09-19T10:44:33;98776.39;;;18.40;61.27
73566;BME280;61846;52.970;-3.168;2023-09-19T10:46:58;98770.62;;;19.16;60.46
73566;BME280;61846;52.970;-3.168;2023-09-19T10:49:24;98775.93;;;19.43;59.67
73566;BME280;61846;52.970;-3.168;2023-09-19T10:51:52;98777.94;;;19.08;61.13
73566;BME280;61846;52.970;-3.168;2023-09-19T10:54:15;98787.02;;;17.63;64.14
73566;BME280;61846;52.970;-3.168;2023-09-19T10:56:43;98782.53;;;17.87;63.77
73566;BME280;61846;52.970;-3.168;2023-09-19T10:59:06;98778.12;;;17.61;63.83
73566;BME280;61846;52.970;-3.168;2023-09-19T11:06:20;98789.41;;;18.19;64.92
73566;BME280;61846;52.970;-3.168;2023-09-19T11:08:56;98784.06;;;17.82;63.58
73566;BME280;61846;52.970;-3.168;2023-09-19T11:13:36;98780.99;;;19.36;59.87
73566;BME280;61846;52.970;-3.168;2023-09-19T11:16:04;98787.91;;;18.81;60.89
73566;BME280;61846;52.970;-3.168;2023-09-19T11:23:23;98787.97;;;20.09;58.21
73566;BME280;61846;52.970;-3.168;2023-09-19T11:25:42;98792.93;;;18.92;61.99
73566;BME280;61846;52.970;-3.168;2023-09-19T11:30:34;98786.42;;;19.04;60.75
73566;BME280;61846;52.970;-3.168;2023-09-19T11:33:16;98775.27;;;18.97;61.13
73566;BME280;61846;52.970;-3.168;2023-09-19T11:40:14;98784.67;;;19.42;60.10
73566;BME280;61846;52.970;-3.168;2023-09-19T11:42:43;98801.11;;;18.95;60.17
73566;BME280;61846;52.970;-3.168;2023-09-19T11:45:05;98798.30;;;18.84;59.74
73566;BME280;61846;52.970;-3.168;2023-09-19T11:47:30;98802.81;;;19.57;60.20
73566;BME280;61846;52.970;-3.168;2023-09-19T11:49:55;98789.74;;;19.36;60.45
73566;BME280;61846;52.970;-3.168;2023-09-19T11:52:22;98775.17;;;19.36;60.40
73566;BME280;61846;52.970;-3.168;2023-09-19T11:54:46;98773.71;;;19.95;58.20
73566;BME280;61846;52.970;-3.168;2023-09-19T11:57:11;98783.87;;;19.67;57.65
73566;BME280;61846;52.970;-3.168;2023-09-19T11:59:39;98792.25;;;20.06;56.27
73566;BME280;61846;52.970;-3.168;2023-09-19T12:02:04;98803.78;;;19.25;58.69
73566;BME280;61846;52.970;-3.168;2023-09-19T12:04:35;98791.76;;;19.80;58.44
73566;BME280;61846;52.970;-3.168;2023-09-19T12:06:56;98784.62;;;20.26;58.55
73566;BME280;61846;52.970;-3.168;2023-09-19T12:09:19;98785.49;;;20.41;55.73
73566;BME280;61846;52.970;-3.168;2023-09-19T12:11:43;98791.23;;;19.93;57.85
73566;BME280;61846;52.970;-3.168;2023-09-19T12:14:08;98803.79;;;19.51;57.98
73566;BME280;61846;52.970;-3.168;2023-09-19T12:16:33;98807.58;;;19.64;58.24
73566;BME280;61846;52.970;-3.168;2023-09-19T12:21:25;98810.12;;;20.29;56.63
73566;BME280;61846;52.970;-3.168;2023-09-19T12:23:58;98819.47;;;20.04;56.47
73566;BME280;61846;52.970;-3.168;2023-09-19T12:26:14;98816.42;;;20.76;54.30
73566;BME280;61846;52.970;-3.168;2023-09-19T12:28:41;98806.06;;;20.45;55.05
73566;BME280;61846;52.970;-3.168;2023-09-19T12:31:06;98806.85;;;20.16;57.32
73566;BME280;61846;52.970;-3.168;2023-09-19T12:33:30;98803.84;;;20.00;57.05
73566;BME280;61846;52.970;-3.168;2023-09-19T12:35:55;98807.26;;;19.69;57.52
73566;BME280;61846;52.970;-3.168;2023-09-19T12:38:25;98806.09;;;19.99;57.90
73566;BME280;61846;52.970;-3.168;2023-09-19T12:40:47;98804.54;;;20.06;56.83
73566;BME280;61846;52.970;-3.168;2023-09-19T12:43:12;98801.16;;;20.99;55.57
73566;BME280;61846;52.970;-3.168;2023-09-19T12:45:37;98811.25;;;19.81;56.43
73566;BME280;61846;52.970;-3.168;2023-09-19T12:48:18;98815.51;;;20.65;54.14
73566;BME280;61846;52.970;-3.168;2023-09-19T12:50:27;98815.83;;;19.61;57.00
73566;BME280;61846;52.970;-3.168;2023-09-19T12:52:53;98817.87;;;19.66;57.78
73566;BME280;61846;52.970;-3.168;2023-09-19T12:55:23;98830.03;;;19.91;57.73
73566;BME280;61846;52.970;-3.168;2023-09-19T12:57:43;98831.93;;;19.37;58.95
73566;BME280;61846;52.970;-3.168;2023-09-19T13:00:09;98846.12;;;20.05;56.90
73566;BME280;61846;52.970;-3.168;2023-09-19T13:02:33;98847.48;;;20.35;56.62
73566;BME280;61846;52.970;-3.168;2023-09-19T13:04:59;98829.97;;;19.52;58.36
73566;BME280;61846;52.970;-3.168;2023-09-19T13:07:40;98848.39;;;18.85;59.92